Flight Track Log - Related Links

Times and Time Zones

All times are in EDT time to prevent confusion due to time zone crossing. See the AAL963 flight status page for this flight to view local times or setup timezone preferences in your user account.

Time Position Orientation Groundspeed Altitude Reporting Facility
EDT Latitude Longitude Course Direction KTS MPH feet Rate Location/Type
Fri 09:42:39 PM 32.9220 -97.0290 North 180 207 1,700  Level FlightAware ADS-B
Fri 09:42:59 PM 32.9390 -97.0260 North 191 220 2,300 1,143 Climbing FlightAware ADS-B
Fri 09:43:21 PM 32.9610 -97.0220 North 224 258 2,500 1,105 Climbing FlightAware ADS-B
Fri 09:43:37 PM 32.9780 -97.0190 North 238 274 3,000 2,167 Climbing FlightAware ADS-B
Fri 09:43:57 PM 32.9980 -97.0140 12° North 237 273 3,800 2,063 Climbing FlightAware ADS-B
Fri 09:44:09 PM 33.0110 -97.0070 24° Northeast 241 277 4,100 1,500 Climbing FlightAware ADS-B
Fri 09:44:17 PM 33.0170 -97.0010 40° Northeast 244 281 4,300 2,625 Climbing FlightAware ADS-B
Fri 09:44:25 PM 33.0240 -96.9910 50° Northeast 241 277 4,800 3,000 Climbing FlightAware ADS-B
Fri 09:44:33 PM 33.0270 -96.9820 68° East 242 278 5,100 2,500 Climbing FlightAware ADS-B
Fri 09:44:37 PM 33.0280 -96.9750 80° East 246 283 5,300 2,000 Climbing FlightAware ADS-B
Fri 09:44:45 PM 33.0290 -96.9640 84° East 254 292 5,500 1,286 Climbing FlightAware ADS-B
Fri 09:45:05 PM 33.0260 -96.9410 99° East 273 314 5,900 1,655 Climbing FlightAware ADS-B
Fri 09:45:14 PM 33.0180 -96.9250 121° Southeast 284 327 6,300 2,571 Climbing FlightAware ADS-B
Fri 09:45:33 PM 33.0040 -96.9030 127° Southeast 283 326 7,100 2,769 Climbing FlightAware ADS-B
Fri 09:45:53 PM 32.9880 -96.8790 128° Southeast 274 315 8,100 2,429 Climbing FlightAware ADS-B
Fri 09:46:15 PM 32.9690 -96.8500 128° Southeast 285 328 8,800 2,133 Climbing FlightAware ADS-B
Fri 09:46:38 PM 32.9510 -96.8240 130° Southeast 282 325 9,700 2,167 Climbing FlightAware ADS-B
Fri 09:46:51 PM 32.9390 -96.8090 134° Southeast 287 330 10,100 1,714 Climbing FlightAware ADS-B
Fri 09:46:59 PM 32.9310 -96.8020 144° Southeast 297 342 10,300 900 Climbing FlightAware ADS-B
Fri 09:47:11 PM 32.9150 -96.7950 160° South 314 361 10,400 480 Climbing FlightAware ADS-B
Fri 09:47:24 PM 32.8940 -96.7920 173° South 333 383 10,500 857 Climbing FlightAware ADS-B
Fri 09:48:00 PM 32.8360 -96.7920 180° South 367 422 11,100 917 Climbing FlightAware ADS-B
Fri 09:48:36 PM 32.7700 -96.7940 181° South 404 465 11,600 1,304 Climbing FlightAware ADS-B
Fri 09:49:09 PM 32.7040 -96.7970 182° South 423 487 12,600 2,294 Climbing FlightAware ADS-B
Fri 09:49:44 PM 32.6370 -96.8000 182° South 423 487 14,200 2,500 Climbing FlightAware ADS-B
Fri 09:50:21 PM 32.5670 -96.8030 182° South 426 490 15,600 2,750 Climbing FlightAware ADS-B
Fri 09:50:56 PM 32.4970 -96.8060 182° South 414 476 17,500 2,696 Climbing FlightAware ADS-B
Fri 09:51:30 PM 32.4310 -96.8090 182° South 417 480 18,700 1,886 Climbing FlightAware ADS-B
Fri 09:52:06 PM 32.3610 -96.8120 182° South 425 489 19,700 1,714 Climbing FlightAware ADS-B
Fri 09:52:26 PM 32.3192 -96.8139 182° South 430 495 20,300 1,660 Climbing FlightAware ADS-B
Fri 09:52:53 PM 32.2651 -96.8067 174° South 442 509 21,000 1,565 Climbing FlightAware ADS-B
Fri 09:53:35 PM 32.1799 -96.7765 163° South 453 521 22,100 1,538 Climbing FlightAware ADS-B
Fri 09:54:11 PM 32.1073 -96.7481 162° South 459 528 23,000 1,701 Climbing FlightAware ADS-B
Fri 09:54:42 PM 32.0456 -96.7242 162° South 457 526 24,000 2,459 Climbing FlightAware ADS-B
Fri 09:55:12 PM 31.9863 -96.7016 162° South 437 503 25,500 2,066 Climbing FlightAware ADS-B
Fri 09:55:43 PM 31.9275 -96.6794 162° South 441 507 26,100 885 Climbing FlightAware ADS-B
Fri 09:56:13 PM 31.8671 -96.6567 162° South 453 521 26,400 689 Climbing FlightAware ADS-B
Fri 09:56:44 PM 31.8053 -96.6315 161° South 465 535 26,800 689 Climbing FlightAware ADS-B
Fri 09:57:14 PM 31.7427 -96.6054 160° South 475 547 27,100 667 Climbing FlightAware ADS-B
Fri 09:57:47 PM 31.6736 -96.5769 161° South 486 559 27,500 896 Climbing FlightAware ADS-B
Fri 09:58:21 PM 31.6020 -96.5476 161° South 490 564 28,100 1,219 Climbing FlightAware ADS-B
Fri 09:58:51 PM 31.5373 -96.5212 161° South 490 564 28,800 1,300 Climbing FlightAware ADS-B
Fri 09:59:21 PM 31.4730 -96.4959 161° South 490 564 29,400 1,279 Climbing FlightAware ADS-B
Fri 09:59:52 PM 31.4063 -96.4715 163° South 488 562 30,100 1,377 Climbing FlightAware ADS-B
Fri 10:00:22 PM 31.3402 -96.4472 163° South 485 558 30,800 900 Climbing FlightAware ADS-B
Fri 10:00:52 PM 31.2760 -96.4234 162° South 484 557 31,000 250 Climbing FlightAware ADS-B
Fri 10:01:10 PM 31.2380 -96.4087 162° South 488 562 31,000  Level FlightAware ADS-B
Fri 10:01:21 PM 31.2147 -96.3968 156° South 492 566 31,000  Level FlightAware ADS-B
Fri 10:01:31 PM 31.1962 -96.3846 151° Southeast 495 570 31,000  Level FlightAware ADS-B
Fri 10:01:40 PM 31.1784 -96.3702 145° Southeast 498 573 31,000  Level FlightAware ADS-B
Fri 10:01:59 PM 31.1467 -96.3360 137° Southeast 504 580 31,000  Level FlightAware ADS-B
Fri 10:02:11 PM 31.1292 -96.3103 128° Southeast 509 586 31,000  Level FlightAware ADS-B
Fri 10:02:17 PM 31.1214 -96.2965 123° Southeast 511 588 31,000  Level FlightAware ADS-B
Fri 10:02:27 PM 31.1092 -96.2702 118° Southeast 515 593 31,000  Level FlightAware ADS-B
Fri 10:02:37 PM 31.1002 -96.2456 113° Southeast 518 596 31,000  Level FlightAware ADS-B
Fri 10:03:07 PM 31.0776 -96.1663 108° East 521 600 31,000  Level FlightAware ADS-B
Fri 10:03:20 PM 31.0702 -96.1309 104° East 522 601 31,000  Level FlightAware ADS-B
Fri 10:03:50 PM 31.0580 -96.0470 100° East 524 603 31,000  Level FlightAware ADS-B
Fri 10:04:13 PM 31.0490 -95.9842 99° East 524 603 31,000  Level FlightAware ADS-B
Fri 10:04:22 PM 31.0462 -95.9573 97° East 525 604 31,000  Level FlightAware ADS-B
Fri 10:04:52 PM 31.0439 -95.8719 92° East 528 608 31,000  Level FlightAware ADS-B
Fri 10:05:23 PM 31.0428 -95.7864 91° East 528 608 31,000  Level FlightAware ADS-B
Fri 10:05:38 PM 31.0416 -95.7430 92° East 528 608 31,000  Level FlightAware ADS-B
Fri 10:05:50 PM 31.0378 -95.7077 97° East 524 603 31,000  Level FlightAware ADS-B
Fri 10:06:01 PM 31.0318 -95.6787 104° East 522 601 31,000  Level FlightAware ADS-B
Fri 10:06:11 PM 31.0237 -95.6515 109° East 519 597 31,000  Level FlightAware ADS-B
Fri 10:06:41 PM 30.9927 -95.5762 116° Southeast 512 589 31,000  Level FlightAware ADS-B
Fri 10:07:12 PM 30.9640 -95.5006 114° Southeast 507 583 31,000  Level FlightAware ADS-B
Fri 10:07:42 PM 30.9358 -95.4238 113° Southeast 506 582 31,000  Level FlightAware ADS-B
Fri 10:08:12 PM 30.9080 -95.3486 113° Southeast 505 581 31,000  Level FlightAware ADS-B
Fri 10:08:43 PM 30.8808 -95.2731 113° Southeast 505 581 31,000  Level FlightAware ADS-B
Fri 10:09:00 PM 30.8647 -95.2282 113° Southeast 506 582 31,000  Level FlightAware ADS-B
Fri 10:09:31 PM 30.8339 -95.1545 116° Southeast 503 579 31,000  Level FlightAware ADS-B
Fri 10:10:02 PM 30.8016 -95.0795 117° Southeast 504 580 31,000  Level FlightAware ADS-B
Fri 10:10:32 PM 30.7704 -95.0063 116° Southeast 506 582 31,000  Level FlightAware ADS-B
Fri 10:11:02 PM 30.7386 -94.9331 117° Southeast 507 583 31,000  Level FlightAware ADS-B
Fri 10:11:33 PM 30.7057 -94.8581 117° Southeast 508 585 31,000  Level FlightAware ADS-B
Fri 10:12:03 PM 30.6735 -94.7853 117° Southeast 508 585 31,000  Level FlightAware ADS-B
Fri 10:12:29 PM 30.6449 -94.7221 118° Southeast 508 585 31,000  Level FlightAware ADS-B
Fri 10:12:59 PM 30.6106 -94.6500 119° Southeast 510 587 31,000  Level FlightAware ADS-B
Fri 10:13:31 PM 30.5751 -94.5751 119° Southeast 510 587 31,000  Level FlightAware ADS-B
Fri 10:14:01 PM 30.5399 -94.5018 119° Southeast 510 587 31,000  Level FlightAware ADS-B
Fri 10:14:32 PM 30.5049 -94.4296 119° Southeast 512 589 31,000  Level FlightAware ADS-B
Fri 10:14:48 PM 30.4835 -94.3862 120° Southeast 514 592 31,000  Level FlightAware ADS-B (EGLF / FAB)
Fri 10:15:02 PM 30.4693 -94.3572 120° Southeast 514 592 31,000  Level FlightAware ADS-B
Fri 10:15:20 PM 30.4452 -94.3086 120° Southeast 515 593 31,000  Level FlightAware ADS-B (EGLF / FAB)
Fri 10:15:24 PM 30.4432 -94.3048 121° Southeast 515 593 31,000  Level FlightAware ADS-B
Fri 10:15:55 PM 30.4036 -94.2346 123° Southeast 514 592 31,000  Level FlightAware ADS-B
Fri 10:16:25 PM 30.3636 -94.1652 124° Southeast 513 590 31,000  Level FlightAware ADS-B
Fri 10:16:56 PM 30.3221 -94.0961 125° Southeast 510 587 31,000  Level FlightAware ADS-B
Fri 10:17:26 PM 30.2815 -94.0295 125° Southeast 504 580 31,000  Level FlightAware ADS-B
Fri 10:17:56 PM 30.2425 -93.9627 124° Southeast 497 572 31,000  Level FlightAware ADS-B
Fri 10:18:09 PM 30.2255 -93.9357 126° Southeast 496 571 31,000  Level FlightAware ADS-B
Fri 10:18:21 PM 30.2069 -93.9122 132° Southeast 492 566 31,000  Level FlightAware ADS-B
Fri 10:18:33 PM 30.1866 -93.8908 138° Southeast 490 564 31,000  Level FlightAware ADS-B
Fri 10:18:41 PM 30.1716 -93.8773 142° Southeast 490 564 31,000  Level FlightAware ADS-B
Fri 10:18:50 PM 30.1541 -93.8642 147° Southeast 489 563 31,000  Level FlightAware ADS-B
Fri 10:18:59 PM 30.1372 -93.8538 152° Southeast 488 562 31,000  Level FlightAware ADS-B
Fri 10:19:08 PM 30.1187 -93.8441 156° South 487 560 31,000  Level FlightAware ADS-B
Fri 10:19:24 PM 30.0840 -93.8281 158° South 486 559 31,000  Level FlightAware ADS-B
Fri 10:19:55 PM 30.0220 -93.7940 155° Southeast 487 560 31,000  Level FlightAware ADS-B
Fri 10:20:04 PM 29.9984 -93.7803 153° Southeast 486 559 31,000  Level FlightAware ADS-B (EGLF / FAB)
Fri 10:20:14 PM 29.9831 -93.7710 152° Southeast 487 560 31,000  Level FlightAware ADS-B
Fri 10:20:44 PM 29.9237 -93.7327 151° Southeast 489 563 31,000  Level FlightAware ADS-B
Fri 10:21:15 PM 29.8639 -93.6939 151° Southeast 489 563 31,000  Level FlightAware ADS-B
Fri 10:21:45 PM 29.8042 -93.6543 150° Southeast 487 560 31,000  Level FlightAware ADS-B
Fri 10:22:16 PM 29.7453 -93.6143 149° Southeast 487 560 31,000  Level FlightAware ADS-B
Fri 10:22:46 PM 29.6864 -93.5746 150° Southeast 486 559 31,000  Level FlightAware ADS-B
Fri 10:23:16 PM 29.6271 -93.5351 150° Southeast 486 559 31,000  Level FlightAware ADS-B
Fri 10:23:47 PM 29.5681 -93.4960 150° Southeast 485 558 31,000  Level FlightAware ADS-B
Fri 10:23:49 PM 29.5577 -93.4891 150° Southeast 485 558 31,000  Level FlightAware ADS-B (EGLF / FAB)
Fri 10:24:17 PM 29.5093 -93.4571 150° Southeast 485 558 31,000  Level FlightAware ADS-B
Fri 10:24:23 PM 29.4930 -93.4463 150° Southeast 485 558 31,000  Level FlightAware ADS-B (EGLF / FAB)
Fri 10:24:47 PM 29.4504 -93.4182 150° Southeast 485 558 31,000  Level FlightAware ADS-B
Fri 10:24:55 PM 29.4301 -93.4048 150° Southeast 485 558 31,000  Level FlightAware ADS-B (EGLF / FAB)
Fri 10:25:17 PM 29.3920 -93.3796 150° Southeast 486 559 31,000  Level FlightAware ADS-B
Fri 10:25:34 PM 29.3527 -93.3538 150° Southeast 486 559 31,000  Level FlightAware ADS-B (EGLF / FAB)
Fri 10:25:47 PM 29.3330 -93.3408 150° Southeast 486 559 31,000  Level FlightAware ADS-B
Fri 10:26:04 PM 29.2962 -93.3165 150° Southeast 487 560 31,000  Level FlightAware ADS-B (EGLF / FAB)
Fri 10:26:17 PM 29.2744 -93.3020 150° Southeast 486 559 31,000  Level FlightAware ADS-B
Fri 10:26:35 PM 29.2343 -93.2757 150° Southeast 488 562 31,000  Level FlightAware ADS-B (EGLF / FAB)
Fri 10:26:48 PM 29.2157 -93.2634 150° Southeast 488 562 31,000  Level FlightAware ADS-B
Fri 10:27:05 PM 29.1770 -93.2380 150° Southeast 489 563 31,000  Level FlightAware ADS-B (EGLF / FAB)
Fri 10:27:18 PM 29.1556 -93.2239 150° Southeast 490 564 31,000  Level FlightAware ADS-B
Fri 10:27:48 PM 29.0966 -93.1850 150° Southeast 491 565 31,000  Level FlightAware ADS-B
Fri 10:28:15 PM 29.0397 -93.1476 150° Southeast 493 567 31,000  Level FlightAware ADS-B (EGLF / FAB)
Fri 10:28:18 PM 29.0371 -93.1460 151° Southeast 493 567 31,000  Level FlightAware ADS-B
Fri 10:28:51 PM 29.0860 -93.1610 345° North 485 558 31,000  Level FlightAware ADS-B
Fri 10:29:02 PM 28.9508 -93.0894 155° Southeast 493 567 31,000  Level FlightAware ADS-B
Fri 10:29:57 PM 28.8450 -93.0115 147° Southeast 493 567 31,000  Level FlightAware ADS-B
Fri 10:30:29 PM 28.7841 -92.9644 146° Southeast 494 568 31,000  Level FlightAware ADS-B
Fri 10:31:18 PM 28.8460 -92.9960 336° Northwest 485 558 31,000  Level FlightAware ADS-B
Fri 10:31:54 PM 28.7870 -92.9560 149° Southeast 485 558 31,000  Level FlightAware ADS-B
Fri 10:32:30 PM 28.7280 -92.9160 149° Southeast 485 558 31,000 -50 Level FlightAware ADS-B
Fri 10:33:53 PM 28.4128 -92.6858 149° Southeast 485 558 30,900 -42 Descending Houston Center
Fri 10:34:54 PM 28.3008 -92.6019 147° Southeast 482 555 30,900  Level Houston Center
Fri 10:35:55 PM 28.1892 -92.5172 146° Southeast 482 555 30,900 49 Level Houston Center
Fri 10:36:56 PM 28.0772 -92.4333 147° Southeast 482 555 31,000 50 Climbing Houston Center
Fri 10:37:56 PM 27.9642 -92.3475 146° Southeast 489 563 31,000  Level Houston Center
Fri 10:38:57 PM 27.8467 -92.2594 146° Southeast 502 578 31,000 -49 Level Houston Center
Fri 10:39:58 PM 27.7275 -92.1725 147° Southeast 508 585 30,900 -49 Descending Houston Center
Fri 10:40:59 PM 27.6103 -92.0864 147° Southeast 505 581 30,900  Level Houston Center
Fri 10:42:00 PM 27.4692 -91.9833 147° Southeast 503 579 30,900  Level Houston Center
Fri 10:43:01 PM 27.3519 -91.8950 146° Southeast 505 581 30,900  Level Houston Center
Fri 10:44:02 PM 27.2350 -91.8078 146° Southeast 506 582 30,900 49 Level Houston Center
Fri 10:45:03 PM 27.1172 -91.7233 147° Southeast 503 579 31,000 83 Climbing Houston Center
Fri 10:47:00 PM 26.8851 -91.5895 153° Southeast  Level FlightAware Approximate
Fri 10:54:00 PM 26.0754 -91.0670 145° Southeast  Level FlightAware Approximate
Fri 10:55:00 PM 25.9660 -90.9812 145° Southeast  Level FlightAware Approximate
Fri 10:56:00 PM 25.8566 -90.8956 145° Southeast  Level FlightAware Approximate
Fri 10:57:00 PM 25.7471 -90.8102 145° Southeast  Level FlightAware Approximate
Fri 10:58:00 PM 25.6376 -90.7248 145° Southeast  Level FlightAware Approximate
Fri 10:59:00 PM 25.5280 -90.6397 145° Southeast  Level FlightAware Approximate
Fri 11:00:00 PM 25.4183 -90.5547 145° Southeast  Level FlightAware Approximate
Fri 11:01:00 PM 25.3087 -90.4698 145° Southeast  Level FlightAware Approximate
Fri 11:02:00 PM 25.1989 -90.3851 145° Southeast  Level FlightAware Approximate
Fri 11:03:00 PM 25.0892 -90.3006 145° Southeast  Level FlightAware Approximate
Fri 11:04:00 PM 24.9794 -90.2162 145° Southeast  Level FlightAware Approximate
Fri 11:05:00 PM 24.8695 -90.1320 145° Southeast  Level FlightAware Approximate
Fri 11:06:00 PM 24.7596 -90.0479 145° Southeast  Level FlightAware Approximate
Fri 11:07:00 PM 24.6496 -89.9639 145° Southeast  Level FlightAware Approximate
Fri 11:08:00 PM 24.5396 -89.8801 145° Southeast  Level FlightAware Approximate
Fri 11:08:06 PM 24.4220 -89.7930 145° Southeast 31,600  Level FlightAware ADS-B
Fri 11:09:19 PM 24.2750 -89.6810 145° Southeast 511 588 33,000 724 Climbing FlightAware ADS-B
Fri 11:10:02 PM 24.1960 -89.6210 145° Southeast 510 587 33,000  Level FlightAware ADS-B
Fri 11:10:38 PM 24.1270 -89.5690 145° Southeast 507 583 33,000  Level FlightAware ADS-B
Fri 11:11:20 PM 24.0430 -89.5060 146° Southeast 506 582 33,000  Level FlightAware ADS-B
Fri 11:12:13 PM 23.9520 -89.4370 145° Southeast 506 582 33,000  Level FlightAware ADS-B
Fri 11:13:01 PM 23.8570 -89.3660 146° Southeast 506 582 33,000  Level FlightAware ADS-B
Fri 11:13:37 PM 23.7980 -89.3210 145° Southeast 506 582 33,000  Level FlightAware ADS-B
Fri 11:14:05 PM 23.7300 -89.2710 146° Southeast 507 583 33,000  Level FlightAware ADS-B
Fri 11:14:37 PM 23.6750 -89.2300 146° Southeast 507 583 33,000  Level FlightAware ADS-B
Fri 11:15:16 PM 23.5860 -89.1630 145° Southeast 509 586 33,000  Level FlightAware ADS-B
Fri 11:15:51 PM 23.5240 -89.1160 145° Southeast 509 586 33,000  Level FlightAware ADS-B
Fri 11:16:27 PM 23.4570 -89.0660 146° Southeast 509 586 33,000  Level FlightAware ADS-B
Fri 11:17:05 PM 23.3450 -88.9830 146° Southeast 511 588 33,000  Level FlightAware ADS-B
Fri 11:17:39 PM 23.3060 -88.9530 145° Southeast 511 588 33,000  Level FlightAware ADS-B
Fri 11:18:21 PM 23.2240 -88.8920 146° Southeast 512 589 33,000  Level FlightAware ADS-B
Fri 11:18:57 PM 23.1640 -88.8480 146° Southeast 513 590 33,000  Level FlightAware ADS-B
Fri 11:19:29 PM 23.0930 -88.7950 146° Southeast 514 592 33,000  Level FlightAware ADS-B
Fri 11:20:02 PM 23.0290 -88.7470 145° Southeast 515 593 33,000  Level FlightAware ADS-B
Fri 11:20:42 PM 22.9500 -88.6890 146° Southeast 515 593 33,000  Level FlightAware ADS-B
Fri 11:21:15 PM 22.8850 -88.6410 146° Southeast 512 589 33,000  Level FlightAware ADS-B
Fri 11:21:44 PM 22.8360 -88.6050 146° Southeast 511 588 33,000  Level FlightAware ADS-B
Fri 11:22:25 PM 22.7560 -88.5460 146° Southeast 510 587 33,000  Level FlightAware ADS-B
Fri 11:23:03 PM 22.6810 -88.4910 146° Southeast 508 585 33,000  Level FlightAware ADS-B
Fri 11:23:44 PM 22.5960 -88.4240 144° Southeast 507 583 33,000  Level FlightAware ADS-B
Fri 11:24:17 PM 22.5100 -88.3410 138° Southeast 502 578 33,000  Level FlightAware ADS-B
Fri 11:24:51 PM 22.4540 -88.2830 136° Southeast 502 578 33,000  Level FlightAware ADS-B
Fri 11:25:27 PM 22.4040 -88.2320 137° Southeast 501 577 33,000  Level FlightAware ADS-B
Fri 11:26:00 PM 22.3470 -88.1750 137° Southeast 500 575 33,000  Level FlightAware ADS-B
Fri 11:26:33 PM 22.2940 -88.1210 137° Southeast 503 579 33,000  Level FlightAware ADS-B
Fri 11:27:11 PM 22.2300 -88.0560 137° Southeast 503 579 33,000  Level FlightAware ADS-B
Fri 11:27:44 PM 22.1770 -88.0020 137° Southeast 503 579 33,000  Level FlightAware ADS-B
Fri 11:28:22 PM 22.1100 -87.9350 137° Southeast 503 579 33,000  Level FlightAware ADS-B
Fri 11:28:59 PM 22.0460 -87.8700 137° Southeast 502 578 33,000  Level FlightAware ADS-B
Fri 11:29:33 PM 21.9880 -87.8120 137° Southeast 501 577 33,000  Level FlightAware ADS-B
Fri 11:30:05 PM 21.9350 -87.7580 137° Southeast 500 575 33,000  Level FlightAware ADS-B
Fri 11:30:42 PM 21.8700 -87.6930 137° Southeast 501 577 33,000  Level FlightAware ADS-B
Fri 11:31:25 PM 21.7970 -87.6200 137° Southeast 503 579 33,000  Level FlightAware ADS-B
Fri 11:32:01 PM 21.7390 -87.5630 138° Southeast 504 580 33,000  Level FlightAware ADS-B
Fri 11:32:30 PM 21.6870 -87.5110 137° Southeast 504 580 33,000  Level FlightAware ADS-B
Fri 11:33:06 PM 21.6230 -87.4480 138° Southeast 505 581 33,000  Level FlightAware ADS-B
Fri 11:33:44 PM 21.5530 -87.3790 137° Southeast 508 585 33,000  Level FlightAware ADS-B
Fri 11:34:20 PM 21.4940 -87.3200 137° Southeast 508 585 33,000  Level FlightAware ADS-B
Fri 11:34:53 PM 21.4340 -87.2610 138° Southeast 509 586 33,000  Level FlightAware ADS-B
Fri 11:35:33 PM 21.3700 -87.1980 137° Southeast 510 587 33,000  Level FlightAware ADS-B
Fri 11:36:03 PM 21.3130 -87.1420 138° Southeast 510 587 33,000  Level FlightAware ADS-B
Fri 11:36:37 PM 21.2560 -87.0850 137° Southeast 510 587 33,000  Level FlightAware ADS-B
Fri 11:37:15 PM 21.1920 -87.0230 138° Southeast 509 586 33,000  Level FlightAware ADS-B
Fri 11:37:43 PM 21.1450 -86.9760 137° Southeast 510 587 33,000  Level FlightAware ADS-B
Fri 11:38:25 PM 21.0730 -86.9060 138° Southeast 511 588 33,000  Level FlightAware ADS-B
Fri 11:39:02 PM 21.0050 -86.8390 137° Southeast 511 588 33,000  Level FlightAware ADS-B
Fri 11:39:31 PM 20.9560 -86.7910 138° Southeast 510 587 33,000  Level FlightAware ADS-B
Fri 11:40:12 PM 20.8730 -86.7110 138° Southeast 511 588 33,000  Level FlightAware ADS-B
Fri 11:40:45 PM 20.8120 -86.6510 137° Southeast 511 588 33,000  Level FlightAware ADS-B
Fri 11:41:21 PM 20.7480 -86.5900 138° Southeast 508 585 33,000  Level FlightAware ADS-B
Fri 11:41:58 PM 20.6850 -86.5290 138° Southeast 503 579 33,000  Level FlightAware ADS-B
Fri 11:42:33 PM 20.6270 -86.4730 138° Southeast 498 573 33,000  Level FlightAware ADS-B
Fri 11:43:05 PM 20.5710 -86.4190 138° Southeast 496 571 33,000  Level FlightAware ADS-B
Fri 11:43:37 PM 20.5170 -86.3670 138° Southeast 496 571 33,000  Level FlightAware ADS-B
Fri 11:44:17 PM 20.4600 -86.3100 137° Southeast 496 571 33,000  Level FlightAware ADS-B
Fri 11:44:53 PM 20.4090 -86.2590 137° Southeast 496 571 33,000  Level FlightAware ADS-B
Fri 11:45:29 PM 20.3580 -86.2080 137° Southeast 496 571 33,000  Level FlightAware ADS-B
Fri 11:46:05 PM 20.3060 -86.1570 137° Southeast 496 571 33,000  Level FlightAware ADS-B
Fri 11:46:39 PM 20.2050 -86.0660 140° Southeast 496 571 33,000  Level FlightAware ADS-B
Fri 11:47:11 PM 20.1490 -86.0130 138° Southeast 497 572 33,000  Level FlightAware ADS-B
Fri 11:47:47 PM 20.0900 -85.9560 138° Southeast 497 572 33,000  Level FlightAware ADS-B
Fri 11:48:22 PM 20.0300 -85.8990 138° Southeast 497 572 33,000  Level FlightAware ADS-B
Fri 11:48:57 PM 19.9670 -85.8390 138° Southeast 503 579 33,000  Level FlightAware ADS-B
Fri 11:49:33 PM 19.9060 -85.7820 139° Southeast 505 581 33,000  Level FlightAware ADS-B
Fri 11:50:09 PM 19.8430 -85.7220 138° Southeast 505 581 33,000  Level FlightAware ADS-B
Fri 11:50:45 PM 19.7780 -85.6610 139° Southeast 507 583 33,000  Level FlightAware ADS-B
Fri 11:51:18 PM 19.7210 -85.6080 139° Southeast 507 583 33,000  Level FlightAware ADS-B
Fri 11:52:04 PM 19.6480 -85.5380 138° Southeast 506 582 33,000  Level FlightAware ADS-B
Fri 11:52:35 PM 19.5860 -85.4810 139° Southeast 504 580 33,000  Level FlightAware ADS-B
Fri 11:53:25 PM 19.4990 -85.3990 138° Southeast 505 581 33,000  Level FlightAware ADS-B
Fri 11:53:59 PM 19.4380 -85.3420 139° Southeast 506 582 33,000  Level FlightAware ADS-B
Fri 11:54:35 PM 19.3750 -85.2830 139° Southeast 506 582 33,000  Level FlightAware ADS-B
Fri 11:55:08 PM 19.3240 -85.2350 138° Southeast 507 583 33,000  Level FlightAware ADS-B
Fri 11:55:44 PM 19.2700 -85.1840 138° Southeast 507 583 33,000  Level FlightAware ADS-B
Fri 11:56:20 PM 19.2170 -85.1330 138° Southeast 507 583 33,000  Level FlightAware ADS-B
Fri 11:56:58 PM 19.1610 -85.0790 138° Southeast 507 583 33,000  Level FlightAware ADS-B
Fri 11:57:34 PM 19.1070 -85.0280 138° Southeast 507 583 33,000  Level FlightAware ADS-B
Fri 11:58:10 PM 19.0540 -84.9780 138° Southeast 507 583 33,000  Level FlightAware ADS-B
Fri 11:58:46 PM 19.0010 -84.9270 138° Southeast 507 583 33,000  Level FlightAware ADS-B
Fri 11:59:22 PM 18.9470 -84.8760 138° Southeast 507 583 33,000  Level FlightAware ADS-B
Fri 11:59:58 PM 18.8940 -84.8250 138° Southeast 507 583 33,000  Level FlightAware ADS-B
Sat 12:00:34 AM 18.8410 -84.7750 138° Southeast 507 583 33,000  Level FlightAware ADS-B
Sat 12:01:11 AM 18.7860 -84.7220 138° Southeast 507 583 33,000  Level FlightAware ADS-B
Sat 12:01:47 AM 18.7330 -84.6720 138° Southeast 507 583 33,000  Level FlightAware ADS-B
Sat 12:02:23 AM 18.6790 -84.6210 138° Southeast 507 583 33,000  Level FlightAware ADS-B
Sat 12:03:00 AM 18.6240 -84.5690 138° Southeast 507 583 33,000  Level FlightAware ADS-B
Sat 12:03:36 AM 18.5710 -84.5180 138° Southeast 507 583 33,000  Level FlightAware ADS-B
Sat 12:04:12 AM 18.5180 -84.4680 138° Southeast 507 583 33,000  Level FlightAware ADS-B
Sat 12:06:00 AM 18.3463 -84.2996 137° Southeast  Level Estimated
Sat 12:07:00 AM 18.2508 -84.2062 137° Southeast  Level Estimated
Sat 12:08:00 AM 18.1553 -84.1129 137° Southeast  Level Estimated
Sat 12:09:00 AM 18.0597 -84.0198 137° Southeast  Level Estimated
Sat 12:10:00 AM 17.9641 -83.9267 137° Southeast  Level Estimated
Sat 12:11:00 AM 17.8685 -83.8337 137° Southeast  Level Estimated
Sat 12:12:00 AM 17.7728 -83.7408 137° Southeast  Level Estimated
Sat 12:13:00 AM 17.6771 -83.6480 137° Southeast  Level Estimated
Sat 12:14:00 AM 17.5813 -83.5553 137° Southeast  Level Estimated
Sat 12:15:00 AM 17.4855 -83.4627 137° Southeast  Level Estimated
Sat 12:16:00 AM 17.3896 -83.3702 137° Southeast  Level Estimated
Sat 12:17:00 AM 17.2937 -83.2778 137° Southeast  Level Estimated
Sat 12:18:00 AM 17.1977 -83.1855 137° Southeast  Level Estimated
Sat 12:19:00 AM 17.1017 -83.0933 137° Southeast  Level Estimated
Sat 12:20:00 AM 17.0057 -83.0012 137° Southeast  Level Estimated
Sat 12:21:00 AM 16.9097 -82.9092 137° Southeast  Level Estimated
Sat 12:22:00 AM 16.8135 -82.8173 138° Southeast  Level Estimated
Sat 12:23:00 AM 16.7174 -82.7254 138° Southeast  Level Estimated
Sat 12:24:00 AM 16.6212 -82.6337 138° Southeast  Level Estimated
Sat 12:25:00 AM 16.5249 -82.5420 138° Southeast  Level Estimated
Sat 12:26:00 AM 16.4287 -82.4505 138° Southeast  Level Estimated
Sat 12:27:00 AM 16.3323 -82.3590 138° Southeast  Level Estimated
Sat 12:28:00 AM 16.2360 -82.2677 138° Southeast  Level Estimated
Sat 12:29:00 AM 16.1396 -82.1764 138° Southeast  Level Estimated
Sat 12:30:00 AM 16.0432 -82.0852 138° Southeast  Level Estimated
Sat 12:31:00 AM 15.9467 -81.9941 138° Southeast  Level Estimated
Sat 12:32:00 AM 15.8502 -81.9031 138° Southeast  Level Estimated
Sat 12:33:00 AM 15.7536 -81.8121 138° Southeast  Level Estimated
Sat 12:34:00 AM 15.6570 -81.7213 138° Southeast  Level Estimated
Sat 12:35:00 AM 15.5604 -81.6305 138° Southeast  Level Estimated
Sat 12:36:00 AM 15.4638 -81.5398 138° Southeast  Level Estimated
Sat 12:37:00 AM 15.3671 -81.4493 138° Southeast  Level Estimated
Sat 12:38:00 AM 15.2703 -81.3587 138° Southeast  Level Estimated
Sat 12:39:00 AM 15.1736 -81.2683 138° Southeast  Level Estimated
Sat 12:40:00 AM 15.0764 -81.1777 138° Southeast  Level Estimated
Sat 12:41:00 AM 14.9792 -81.0871 138° Southeast  Level Estimated
Sat 12:42:00 AM 14.8820 -80.9966 138° Southeast  Level Estimated
Sat 12:43:00 AM 14.7848 -80.9062 138° Southeast  Level Estimated
Sat 12:44:00 AM 14.6875 -80.8159 138° Southeast  Level Estimated
Sat 12:45:00 AM 14.5902 -80.7256 138° Southeast  Level Estimated
Sat 12:46:00 AM 14.4928 -80.6355 138° Southeast  Level Estimated
Sat 12:47:00 AM 14.3954 -80.5454 138° Southeast  Level Estimated
Sat 12:48:00 AM 14.2980 -80.4554 138° Southeast  Level Estimated
Sat 12:49:00 AM 14.2005 -80.3654 138° Southeast  Level Estimated
Sat 12:50:00 AM 14.1030 -80.2756 138° Southeast  Level Estimated
Sat 12:51:00 AM 14.0055 -80.1858 138° Southeast  Level Estimated
Sat 12:52:00 AM 13.9080 -80.0961 138° Southeast  Level Estimated
Sat 12:53:00 AM 13.8104 -80.0065 138° Southeast  Level Estimated
Sat 12:54:00 AM 13.7127 -79.9169 138° Southeast  Level Estimated
Sat 12:55:00 AM 13.6151 -79.8274 138° Southeast  Level Estimated
Sat 12:56:00 AM 13.5174 -79.7380 138° Southeast  Level Estimated
Sat 12:57:00 AM 13.4197 -79.6487 138° Southeast  Level Estimated
Sat 12:58:00 AM 13.3219 -79.5594 138° Southeast  Level Estimated
Sat 12:59:00 AM 13.2241 -79.4703 138° Southeast  Level Estimated
Sat 01:00:00 AM 13.1263 -79.3811 138° Southeast  Level Estimated
Sat 01:01:00 AM 13.0285 -79.2921 138° Southeast  Level Estimated
Sat 01:02:00 AM 12.9306 -79.2031 138° Southeast  Level Estimated
Sat 01:03:00 AM 12.8327 -79.1142 138° Southeast  Level Estimated
Sat 01:04:00 AM 12.7348 -79.0254 138° Southeast  Level Estimated
Sat 01:05:00 AM 12.6368 -78.9367 139° Southeast  Level Estimated
Sat 01:06:00 AM 12.5388 -78.8480 139° Southeast  Level Estimated
Sat 01:07:00 AM 12.4408 -78.7593 139° Southeast  Level Estimated
Sat 01:08:00 AM 12.3428 -78.6708 139° Southeast  Level Estimated
Sat 01:09:00 AM 12.2447 -78.5823 139° Southeast  Level Estimated
Sat 01:10:00 AM 12.1466 -78.4938 139° Southeast  Level Estimated
Sat 01:11:00 AM 12.0484 -78.4055 139° Southeast  Level Estimated
Sat 01:12:00 AM 11.9503 -78.3172 139° Southeast  Level Estimated
Sat 01:13:00 AM 11.8521 -78.2289 139° Southeast  Level Estimated
Sat 01:14:00 AM 11.7539 -78.1408 139° Southeast  Level Estimated
Sat 01:15:00 AM 11.6556 -78.0527 139° Southeast  Level Estimated
Sat 01:16:00 AM 11.5574 -77.9646 139° Southeast  Level Estimated
Sat 01:17:00 AM 11.4591 -77.8766 139° Southeast  Level Estimated
Sat 01:18:00 AM 11.3607 -77.7887 139° Southeast  Level Estimated
Sat 01:19:00 AM 11.2624 -77.7008 139° Southeast  Level Estimated
Sat 01:20:00 AM 11.1640 -77.6130 139° Southeast  Level Estimated
Sat 01:21:00 AM 11.0656 -77.5253 139° Southeast  Level Estimated
Sat 01:21:45 AM 10.3470 -76.8470 139° Southeast 498 573 33,000  Level FlightAware ADS-B
Sat 01:22:00 AM 10.9672 -77.4376 139° Southeast  Level Estimated
Sat 01:22:16 AM 10.2950 -76.7980 137° Southeast 498 573 33,000  Level FlightAware ADS-B
Sat 01:22:55 AM 10.2270 -76.7350 138° Southeast 498 573 33,000  Level FlightAware ADS-B
Sat 01:23:45 AM 10.1480 -76.6610 137° Southeast 498 573 33,000  Level FlightAware ADS-B
Sat 01:24:38 AM 10.0530 -76.5730 138° Southeast 499 574 33,000  Level FlightAware ADS-B
Sat 01:25:10 AM 9.9920 -76.5180 138° Southeast 498 573 33,000  Level FlightAware ADS-B
Sat 01:25:55 AM 9.9210 -76.4520 138° Southeast 498 573 33,000  Level FlightAware ADS-B
Sat 01:26:34 AM 9.8650 -76.3990 137° Southeast 498 573 33,000  Level FlightAware ADS-B
Sat 01:27:06 AM 9.8000 -76.3390 138° Southeast 498 573 33,000  Level FlightAware ADS-B
Sat 01:27:45 AM 9.7270 -76.2720 138° Southeast 495 570 33,000  Level FlightAware ADS-B
Sat 01:28:15 AM 9.6800 -76.2290 138° Southeast 495 570 33,000  Level FlightAware ADS-B
Sat 01:28:55 AM 9.6120 -76.1660 138° Southeast 495 570 33,000  Level FlightAware ADS-B
Sat 01:29:30 AM 9.5540 -76.1130 138° Southeast 495 570 33,000  Level FlightAware ADS-B
Sat 01:30:10 AM 9.4850 -76.0490 138° Southeast 495 570 33,000  Level FlightAware ADS-B
Sat 01:30:46 AM 9.4320 -75.9840 130° Southeast 493 567 33,000  Level FlightAware ADS-B
Sat 01:31:20 AM 9.3840 -75.9220 128° Southeast 493 567 33,000  Level FlightAware ADS-B
Sat 01:31:50 AM 9.3440 -75.8700 128° Southeast 492 566 33,000  Level FlightAware ADS-B
Sat 01:32:35 AM 9.2750 -75.7890 131° Southeast 493 567 33,000  Level FlightAware ADS-B
Sat 01:33:10 AM 9.2270 -75.7330 131° Southeast 493 567 33,000  Level FlightAware ADS-B
Sat 01:34:06 AM 9.1420 -75.6340 131° Southeast 494 568 33,000  Level FlightAware ADS-B
Sat 01:34:50 AM 9.0690 -75.5550 133° Southeast 496 571 33,000  Level FlightAware ADS-B
Sat 01:35:40 AM 8.9910 -75.4760 135° Southeast 496 571 33,000  Level FlightAware ADS-B
Sat 01:36:30 AM 8.9050 -75.3930 136° Southeast 497 572 33,000  Level FlightAware ADS-B
Sat 01:37:00 AM 8.8560 -75.3520 140° Southeast 497 572 33,000  Level FlightAware ADS-B
Sat 01:37:55 AM 8.7550 -75.2670 140° Southeast 498 573 33,000  Level FlightAware ADS-B
Sat 01:38:45 AM 8.6670 -75.1920 140° Southeast 498 573 33,000  Level FlightAware ADS-B
Sat 01:39:30 AM 8.5980 -75.1120 131° Southeast 495 570 33,000  Level FlightAware ADS-B
Sat 01:40:06 AM 8.5560 -75.0500 124° Southeast 494 568 33,000  Level FlightAware ADS-B
Sat 01:40:55 AM 8.4850 -74.9480 125° Southeast 494 568 33,000  Level FlightAware ADS-B
Sat 01:41:35 AM 8.4350 -74.8750 125° Southeast 493 567 33,000  Level FlightAware ADS-B
Sat 01:42:10 AM 8.3910 -74.8110 125° Southeast 494 568 33,000  Level FlightAware ADS-B
Sat 01:42:50 AM 8.3380 -74.7310 124° Southeast 494 568 33,000  Level FlightAware ADS-B
Sat 01:43:35 AM 8.2890 -74.6410 119° Southeast 493 567 33,000  Level FlightAware ADS-B
Sat 01:44:16 AM 8.2440 -74.5590 119° Southeast 494 568 33,000  Level FlightAware ADS-B
Sat 01:44:51 AM 8.2050 -74.4920 120° Southeast 492 566 33,000  Level FlightAware ADS-B
Sat 01:45:30 AM 8.1420 -74.4240 133° Southeast 492 566 33,000  Level FlightAware ADS-B
Sat 01:46:00 AM 8.0830 -74.3840 146° Southeast 494 568 33,000  Level FlightAware ADS-B
Sat 01:46:35 AM 8.0120 -74.3450 151° Southeast 493 567 33,000  Level FlightAware ADS-B
Sat 01:47:10 AM 7.9430 -74.3080 152° Southeast 493 567 33,000  Level FlightAware ADS-B
Sat 01:47:55 AM 7.8590 -74.2620 152° Southeast 493 567 33,000  Level FlightAware ADS-B
Sat 01:48:30 AM 7.7820 -74.2210 152° Southeast 492 566 33,000  Level FlightAware ADS-B
Sat 01:49:05 AM 7.7070 -74.1890 157° South 493 567 33,000  Level FlightAware ADS-B
Sat 01:49:45 AM 7.6240 -74.1520 156° South 495 570 33,000  Level FlightAware ADS-B
Sat 01:50:20 AM 7.5490 -74.1200 157° South 493 567 33,000  Level FlightAware ADS-B
Sat 01:50:55 AM 7.4770 -74.0880 156° South 492 566 33,000  Level FlightAware ADS-B
Sat 01:51:30 AM 7.4050 -74.0520 154° Southeast 492 566 33,000  Level FlightAware ADS-B
Sat 01:52:06 AM 7.3350 -74.0150 152° Southeast 492 566 33,000  Level FlightAware ADS-B
Sat 01:52:40 AM 7.2650 -73.9760 151° Southeast 492 566 33,000  Level FlightAware ADS-B
Sat 01:53:15 AM 7.2030 -73.9430 152° Southeast 492 566 33,000  Level FlightAware ADS-B
Sat 01:53:45 AM 7.1340 -73.9050 151° Southeast 490 564 33,000  Level FlightAware ADS-B
Sat 01:54:25 AM 7.0660 -73.8690 152° Southeast 490 564 33,000  Level FlightAware ADS-B
Sat 01:55:00 AM 6.9910 -73.8280 152° Southeast 490 564 33,000  Level FlightAware ADS-B
Sat 01:55:37 AM 6.9280 -73.7940 152° Southeast 490 564 33,000  Level FlightAware ADS-B
Sat 01:56:10 AM 6.8440 -73.7470 151° Southeast 490 564 33,000  Level FlightAware ADS-B
Sat 01:56:45 AM 6.7730 -73.7090 152° Southeast 490 564 33,000  Level FlightAware ADS-B
Sat 01:57:15 AM 6.7140 -73.6770 152° Southeast 490 564 33,000  Level FlightAware ADS-B
Sat 01:57:56 AM 6.6310 -73.6320 152° Southeast 489 563 33,000  Level FlightAware ADS-B
Sat 01:58:32 AM 6.5590 -73.5930 152° Southeast 490 564 33,000  Level FlightAware ADS-B
Sat 01:59:04 AM 6.4970 -73.5600 152° Southeast 491 565 33,000  Level FlightAware ADS-B
Sat 01:59:41 AM 6.4220 -73.5190 151° Southeast 492 566 33,000  Level FlightAware ADS-B
Sat 02:00:16 AM 6.3530 -73.4810 151° Southeast 490 564 33,000  Level FlightAware ADS-B
Sat 02:00:50 AM 6.2830 -73.4440 152° Southeast 491 565 33,000  Level FlightAware ADS-B
Sat 02:01:28 AM 6.2070 -73.4020 151° Southeast 490 564 33,000  Level FlightAware ADS-B
Sat 02:02:00 AM 6.1430 -73.3680 152° Southeast 490 564 33,000  Level FlightAware ADS-B
Sat 02:02:45 AM 6.0620 -73.3230 151° Southeast 489 563 33,000  Level FlightAware ADS-B
Sat 02:03:21 AM 6.0010 -73.2890 151° Southeast 489 563 33,000  Level FlightAware ADS-B
Sat 02:03:58 AM 5.9390 -73.2550 151° Southeast 489 563 33,000  Level FlightAware ADS-B
Sat 02:04:34 AM 5.8790 -73.2210 151° Southeast 489 563 33,000  Level FlightAware ADS-B
Sat 02:05:10 AM 5.8180 -73.1870 151° Southeast 489 563 33,000  Level FlightAware ADS-B
Sat 02:05:46 AM 5.7580 -73.1540 151° Southeast 489 563 33,000  Level FlightAware ADS-B
Sat 02:06:22 AM 5.6970 -73.1200 151° Southeast 489 563 33,000  Level FlightAware ADS-B
Sat 02:06:57 AM 5.5480 -73.0470 154° Southeast 489 563 33,000  Level FlightAware ADS-B
Sat 02:07:34 AM 5.4730 -73.0060 151° Southeast 489 563 33,000  Level FlightAware ADS-B
Sat 02:08:06 AM 5.4100 -72.9720 152° Southeast 490 564 33,000  Level FlightAware ADS-B
Sat 02:08:40 AM 5.3420 -72.9350 152° Southeast 492 566 33,000  Level FlightAware ADS-B
Sat 02:09:18 AM 5.2650 -72.8940 152° Southeast 493 567 33,000  Level FlightAware ADS-B
Sat 02:09:52 AM 5.1950 -72.8560 152° Southeast 493 567 33,000  Level FlightAware ADS-B
Sat 02:10:22 AM 5.1360 -72.8240 152° Southeast 492 566 33,000  Level FlightAware ADS-B
Sat 02:11:05 AM 5.0630 -72.7840 151° Southeast 492 566 33,000  Level FlightAware ADS-B
Sat 02:12:03 AM 4.9650 -72.7290 151° Southeast 492 566 33,000  Level FlightAware ADS-B
Sat 02:12:40 AM 4.9020 -72.6940 151° Southeast 492 566 33,000  Level FlightAware ADS-B
Sat 02:13:16 AM 4.8410 -72.6600 151° Southeast 492 566 33,000  Level FlightAware ADS-B
Sat 02:13:53 AM 4.7790 -72.6250 151° Southeast 492 566 33,000  Level FlightAware ADS-B
Sat 02:14:29 AM 4.7180 -72.5920 152° Southeast 492 566 33,000  Level FlightAware ADS-B
Sat 02:15:05 AM 4.6570 -72.5580 151° Southeast 492 566 33,000  Level FlightAware ADS-B
Sat 02:15:41 AM 4.5960 -72.5240 151° Southeast 492 566 33,000  Level FlightAware ADS-B
Sat 02:16:17 AM 4.5350 -72.4900 151° Southeast 492 566 33,000  Level FlightAware ADS-B
Sat 02:16:53 AM 4.4740 -72.4560 151° Southeast 492 566 33,000  Level FlightAware ADS-B
Sat 02:17:29 AM 4.4130 -72.4220 151° Southeast 492 566 33,000  Level FlightAware ADS-B
Sat 02:18:06 AM 4.3510 -72.3870 151° Southeast 492 566 33,000  Level FlightAware ADS-B
Sat 02:18:42 AM 4.2900 -72.3540 152° Southeast 492 566 33,000  Level FlightAware ADS-B
Sat 02:19:19 AM 4.2270 -72.3190 151° Southeast 492 566 33,000  Level FlightAware ADS-B
Sat 02:19:55 AM 4.1660 -72.2850 151° Southeast 492 566 33,000 Level FlightAware ADS-B
Sat 02:22:00 AM 3.9376 -72.1361 147° Southeast  Level FlightAware Approximate
Sat 02:23:00 AM 3.8297 -72.0602 145° Southeast  Level FlightAware Approximate
Sat 02:24:00 AM 3.7228 -71.9848 145° Southeast  Level FlightAware Approximate
Sat 02:25:00 AM 3.6159 -71.9094 145° Southeast  Level FlightAware Approximate
Sat 02:26:00 AM 3.5090 -71.8340 145° Southeast  Level FlightAware Approximate
Sat 02:27:00 AM 3.4020 -71.7586 145° Southeast  Level FlightAware Approximate
Sat 02:28:00 AM 3.2951 -71.6832 145° Southeast  Level FlightAware Approximate
Sat 02:29:00 AM 3.1882 -71.6079 145° Southeast  Level FlightAware Approximate
Sat 02:30:00 AM 3.0812 -71.5325 145° Southeast  Level FlightAware Approximate
Sat 02:31:00 AM 2.9743 -71.4572 145° Southeast  Level FlightAware Approximate
Sat 02:32:00 AM 2.8673 -71.3819 145° Southeast  Level FlightAware Approximate
Sat 02:33:00 AM 2.7603 -71.3066 145° Southeast  Level FlightAware Approximate
Sat 02:34:00 AM 2.6534 -71.2314 145° Southeast  Level FlightAware Approximate
Sat 02:35:00 AM 2.5464 -71.1561 145° Southeast  Level FlightAware Approximate
Sat 02:36:00 AM 2.4394 -71.0808 145° Southeast  Level FlightAware Approximate
Sat 02:37:00 AM 2.3324 -71.0056 145° Southeast  Level FlightAware Approximate
Sat 02:38:00 AM 2.2255 -70.9304 145° Southeast  Level FlightAware Approximate
Sat 02:39:00 AM 2.1185 -70.8552 145° Southeast  Level FlightAware Approximate
Sat 02:40:00 AM 2.0115 -70.7800 145° Southeast  Level FlightAware Approximate
Sat 02:41:00 AM 1.9045 -70.7048 145° Southeast  Level FlightAware Approximate
Sat 02:42:00 AM 1.7975 -70.6296 145° Southeast  Level FlightAware Approximate
Sat 02:43:00 AM 1.6905 -70.5544 145° Southeast  Level FlightAware Approximate
Sat 02:44:00 AM 1.5835 -70.4792 145° Southeast  Level FlightAware Approximate
Sat 02:45:00 AM 1.4764 -70.4041 145° Southeast  Level FlightAware Approximate
Sat 02:46:00 AM 1.3694 -70.3289 145° Southeast  Level FlightAware Approximate
Sat 02:47:00 AM 1.2624 -70.2538 145° Southeast  Level FlightAware Approximate
Sat 02:48:00 AM 1.1622 -70.1700 138° Southeast  Level FlightAware Approximate
Sat 02:49:00 AM 1.0646 -70.0831 138° Southeast  Level FlightAware Approximate
Sat 02:50:00 AM 0.9669 -69.9962 138° Southeast  Level FlightAware Approximate
Sat 02:51:00 AM 0.8692 -69.9092 138° Southeast  Level FlightAware Approximate
Sat 02:52:00 AM 0.7715 -69.8223 138° Southeast  Level FlightAware Approximate
Sat 02:53:00 AM 0.6738 -69.7354 138° Southeast  Level FlightAware Approximate
Sat 02:54:00 AM 0.5762 -69.6485 138° Southeast  Level FlightAware Approximate
Sat 02:55:00 AM 0.4785 -69.5616 138° Southeast  Level FlightAware Approximate
Sat 02:56:00 AM 0.3808 -69.4746 138° Southeast  Level FlightAware Approximate
Sat 02:57:00 AM 0.2831 -69.3877 138° Southeast  Level FlightAware Approximate
Sat 02:58:00 AM 0.1854 -69.3008 138° Southeast  Level FlightAware Approximate
Sat 02:59:00 AM 0.0877 -69.2139 138° Southeast  Level FlightAware Approximate
Sat 03:00:00 AM -0.0100 -69.1270 138° Southeast  Level FlightAware Approximate
Sat 03:01:00 AM -0.1077 -69.0401 138° Southeast  Level FlightAware Approximate
Sat 03:02:00 AM -0.2054 -68.9532 138° Southeast  Level FlightAware Approximate
Sat 03:03:00 AM -0.3031 -68.8663 138° Southeast  Level FlightAware Approximate
Sat 03:04:00 AM -0.4008 -68.7794 138° Southeast  Level FlightAware Approximate
Sat 03:05:00 AM -0.4984 -68.6925 138° Southeast  Level FlightAware Approximate
Sat 03:06:00 AM -0.5961 -68.6056 138° Southeast  Level FlightAware Approximate
Sat 03:07:00 AM -0.6938 -68.5186 138° Southeast  Level FlightAware Approximate
Sat 03:08:00 AM -0.7915 -68.4317 138° Southeast  Level FlightAware Approximate
Sat 03:09:00 AM -0.8892 -68.3448 138° Southeast  Level FlightAware Approximate
Sat 03:10:00 AM -0.9868 -68.2579 138° Southeast  Level FlightAware Approximate
Sat 03:11:00 AM -1.0845 -68.1709 138° Southeast  Level FlightAware Approximate
Sat 03:12:00 AM -1.1822 -68.0840 138° Southeast  Level FlightAware Approximate
Sat 03:13:00 AM -1.2799 -67.9970 138° Southeast  Level FlightAware Approximate
Sat 03:14:00 AM -1.3775 -67.9101 138° Southeast  Level FlightAware Approximate
Sat 03:15:00 AM -1.4752 -67.8231 138° Southeast  Level FlightAware Approximate
Sat 03:16:00 AM -1.5728 -67.7361 138° Southeast  Level FlightAware Approximate
Sat 03:17:00 AM -1.6705 -67.6492 138° Southeast  Level FlightAware Approximate
Sat 03:18:00 AM -1.7682 -67.5622 138° Southeast  Level FlightAware Approximate
Sat 03:19:00 AM -1.8660 -67.4750 138° Southeast  Level FlightAware Approximate
Sat 03:20:00 AM -1.9638 -67.3879 138° Southeast  Level FlightAware Approximate
Sat 03:21:00 AM -2.0616 -67.3007 138° Southeast  Level FlightAware Approximate
Sat 03:22:00 AM -2.1594 -67.2135 138° Southeast  Level FlightAware Approximate
Sat 03:23:00 AM -2.2572 -67.1263 138° Southeast  Level FlightAware Approximate
Sat 03:24:00 AM -2.3550 -67.0391 138° Southeast  Level FlightAware Approximate
Sat 03:25:00 AM -2.4528 -66.9519 138° Southeast  Level FlightAware Approximate
Sat 03:26:00 AM -2.5506 -66.8647 138° Southeast  Level FlightAware Approximate
Sat 03:27:00 AM -2.6484 -66.7774 138° Southeast  Level FlightAware Approximate
Sat 03:28:00 AM -2.7462 -66.6902 138° Southeast  Level FlightAware Approximate
Sat 03:29:00 AM -2.8439 -66.6029 138° Southeast  Level FlightAware Approximate
Sat 03:30:00 AM -2.9417 -66.5156 138° Southeast  Level FlightAware Approximate
Sat 03:31:00 AM -3.0394 -66.4283 138° Southeast  Level FlightAware Approximate
Sat 03:32:00 AM -3.1372 -66.3410 138° Southeast  Level FlightAware Approximate
Sat 03:33:00 AM -3.2349 -66.2537 138° Southeast  Level FlightAware Approximate
Sat 03:34:00 AM -3.3326 -66.1664 138° Southeast  Level FlightAware Approximate
Sat 03:35:00 AM -3.4304 -66.0790 138° Southeast  Level FlightAware Approximate
Sat 03:36:00 AM -3.5281 -65.9916 138° Southeast  Level FlightAware Approximate
Sat 03:37:00 AM -3.6258 -65.9042 138° Southeast  Level FlightAware Approximate
Sat 03:38:00 AM -3.7235 -65.8168 138° Southeast  Level FlightAware Approximate
Sat 03:39:00 AM -3.8212 -65.7293 138° Southeast  Level FlightAware Approximate
Sat 03:40:00 AM -3.9189 -65.6419 138° Southeast  Level FlightAware Approximate
Sat 03:41:00 AM -4.0165 -65.5544 138° Southeast  Level FlightAware Approximate
Sat 03:42:00 AM -4.1142 -65.4669 138° Southeast  Level FlightAware Approximate
Sat 03:43:00 AM -4.2119 -65.3794 138° Southeast  Level FlightAware Approximate
Sat 03:44:00 AM -4.3095 -65.2918 138° Southeast  Level FlightAware Approximate
Sat 03:45:00 AM -4.4071 -65.2043 138° Southeast  Level FlightAware Approximate
Sat 03:46:00 AM -4.5047 -65.1167 138° Southeast  Level FlightAware Approximate
Sat 03:47:00 AM -4.6024 -65.0291 138° Southeast  Level FlightAware Approximate
Sat 03:48:00 AM -4.7000 -64.9415 138° Southeast  Level FlightAware Approximate
Sat 03:49:00 AM -4.7975 -64.8538 138° Southeast  Level FlightAware Approximate
Sat 03:50:00 AM -4.8951 -64.7661 138° Southeast  Level FlightAware Approximate
Sat 03:51:00 AM -4.9927 -64.6784 138° Southeast  Level FlightAware Approximate
Sat 03:52:00 AM -5.0903 -64.5907 138° Southeast  Level FlightAware Approximate
Sat 03:53:00 AM -5.1878 -64.5029 138° Southeast  Level FlightAware Approximate
Sat 03:54:00 AM -5.2853 -64.4151 138° Southeast  Level FlightAware Approximate
Sat 03:55:00 AM -5.3829 -64.3273 138° Southeast  Level FlightAware Approximate
Sat 03:56:00 AM -5.4804 -64.2394 138° Southeast  Level FlightAware Approximate
Sat 03:57:00 AM -5.5779 -64.1516 138° Southeast  Level FlightAware Approximate
Sat 03:58:00 AM -5.6753 -64.0637 138° Southeast  Level FlightAware Approximate
Sat 03:59:00 AM -5.7728 -63.9757 138° Southeast  Level FlightAware Approximate
Sat 04:00:00 AM -5.8703 -63.8878 138° Southeast  Level FlightAware Approximate
Sat 04:01:00 AM -5.9677 -63.7998 138° Southeast  Level FlightAware Approximate
Sat 04:02:00 AM -6.0651 -63.7118 138° Southeast  Level FlightAware Approximate
Sat 04:03:00 AM -6.1625 -63.6237 138° Southeast  Level FlightAware Approximate
Sat 04:04:00 AM -6.2600 -63.5356 138° Southeast  Level FlightAware Approximate
Sat 04:05:00 AM -6.3573 -63.4475 138° Southeast  Level FlightAware Approximate
Sat 04:06:00 AM -6.4547 -63.3593 138° Southeast  Level FlightAware Approximate
Sat 04:07:00 AM -6.5521 -63.2711 138° Southeast  Level FlightAware Approximate
Sat 04:08:00 AM -6.6494 -63.1829 138° Southeast  Level FlightAware Approximate
Sat 04:09:00 AM -6.7467 -63.0947 138° Southeast  Level FlightAware Approximate
Sat 04:10:00 AM -6.8440 -63.0064 138° Southeast  Level FlightAware Approximate
Sat 04:11:00 AM -6.9413 -62.9180 138° Southeast  Level FlightAware Approximate
Sat 04:12:00 AM -7.0386 -62.8297 138° Southeast  Level FlightAware Approximate
Sat 04:13:00 AM -7.1358 -62.7413 138° Southeast  Level FlightAware Approximate
Sat 04:14:00 AM -7.2331 -62.6528 138° Southeast  Level FlightAware Approximate
Sat 04:15:00 AM -7.3303 -62.5643 138° Southeast  Level FlightAware Approximate
Sat 04:16:00 AM -7.4275 -62.4758 138° Southeast  Level FlightAware Approximate
Sat 04:17:00 AM -7.5247 -62.3873 138° Southeast  Level FlightAware Approximate
Sat 04:18:00 AM -7.6219 -62.2987 138° Southeast  Level FlightAware Approximate
Sat 04:19:00 AM -7.7190 -62.2100 138° Southeast  Level FlightAware Approximate
Sat 04:20:00 AM -7.8162 -62.1213 138° Southeast  Level FlightAware Approximate
Sat 04:21:00 AM -7.9133 -62.0326 138° Southeast  Level FlightAware Approximate
Sat 04:22:00 AM -8.0104 -61.9439 138° Southeast  Level FlightAware Approximate
Sat 04:23:00 AM -8.1075 -61.8551 138° Southeast  Level FlightAware Approximate
Sat 04:24:00 AM -8.2045 -61.7662 138° Southeast  Level FlightAware Approximate
Sat 04:25:00 AM -8.3016 -61.6773 138° Southeast  Level FlightAware Approximate
Sat 04:26:00 AM -8.3986 -61.5884 138° Southeast  Level FlightAware Approximate
Sat 04:27:00 AM -8.4956 -61.4994 138° Southeast  Level FlightAware Approximate
Sat 04:28:00 AM -8.5926 -61.4104 138° Southeast  Level FlightAware Approximate
Sat 04:29:00 AM -8.6895 -61.3213 138° Southeast  Level FlightAware Approximate
Sat 04:30:00 AM -8.7865 -61.2322 138° Southeast  Level FlightAware Approximate
Sat 04:31:00 AM -8.8834 -61.1430 138° Southeast  Level FlightAware Approximate
Sat 04:32:00 AM -8.9803 -61.0538 138° Southeast  Level FlightAware Approximate
Sat 04:33:00 AM -9.0772 -60.9646 138° Southeast  Level FlightAware Approximate
Sat 04:34:00 AM -9.1740 -60.8753 138° Southeast  Level FlightAware Approximate
Sat 04:35:00 AM -9.2709 -60.7859 138° Southeast  Level FlightAware Approximate
Sat 04:36:00 AM -9.3677 -60.6965 138° Southeast  Level FlightAware Approximate
Sat 04:37:00 AM -9.4645 -60.6071 138° Southeast  Level FlightAware Approximate
Sat 04:38:00 AM -9.5612 -60.5176 138° Southeast  Level FlightAware Approximate
Sat 04:39:00 AM -9.6580 -60.4280 138° Southeast  Level FlightAware Approximate
Sat 04:40:00 AM -9.7547 -60.3384 138° Southeast  Level FlightAware Approximate
Sat 04:41:00 AM -9.8514 -60.2487 138° Southeast  Level FlightAware Approximate
Sat 04:42:00 AM -9.9481 -60.1590 138° Southeast  Level FlightAware Approximate
Sat 04:43:00 AM -10.0447 -60.0693 138° Southeast  Level FlightAware Approximate
Sat 04:44:00 AM -10.1413 -59.9795 138° Southeast  Level FlightAware Approximate
Sat 04:45:00 AM -10.2379 -59.8896 138° Southeast  Level FlightAware Approximate
Sat 04:46:00 AM -10.3345 -59.7996 138° Southeast  Level FlightAware Approximate
Sat 04:47:00 AM -10.4311 -59.7097 137° Southeast  Level FlightAware Approximate
Sat 04:48:00 AM -10.5274 -59.6198 137° Southeast  Level FlightAware Approximate
Sat 04:49:00 AM -10.6238 -59.5299 137° Southeast  Level FlightAware Approximate
Sat 04:50:00 AM -10.7201 -59.4399 137° Southeast  Level FlightAware Approximate
Sat 04:51:00 AM -10.8163 -59.3498 137° Southeast  Level FlightAware Approximate
Sat 04:52:00 AM -10.9126 -59.2597 137° Southeast  Level FlightAware Approximate
Sat 04:53:00 AM -11.0088 -59.1695 137° Southeast  Level FlightAware Approximate
Sat 04:54:00 AM -11.1050 -59.0793 137° Southeast  Level FlightAware Approximate
Sat 04:55:00 AM -11.2012 -58.9890 137° Southeast  Level FlightAware Approximate
Sat 04:56:00 AM -11.2973 -58.8987 137° Southeast  Level FlightAware Approximate
Sat 04:57:00 AM -11.3935 -58.8083 137° Southeast  Level FlightAware Approximate
Sat 04:58:00 AM -11.4896 -58.7178 137° Southeast  Level FlightAware Approximate
Sat 04:59:00 AM -11.5856 -58.6273 137° Southeast  Level FlightAware Approximate
Sat 05:00:00 AM -11.6817 -58.5367 137° Southeast  Level FlightAware Approximate
Sat 05:01:00 AM -11.7777 -58.4460 137° Southeast  Level FlightAware Approximate
Sat 05:02:00 AM -11.8736 -58.3553 137° Southeast  Level FlightAware Approximate
Sat 05:03:00 AM -11.9696 -58.2645 137° Southeast  Level FlightAware Approximate
Sat 05:04:00 AM -12.0655 -58.1737 137° Southeast  Level FlightAware Approximate
Sat 05:05:00 AM -12.1614 -58.0827 137° Southeast  Level FlightAware Approximate
Sat 05:06:00 AM -12.2573 -57.9918 137° Southeast  Level FlightAware Approximate
Sat 05:07:00 AM -12.3531 -57.9007 137° Southeast  Level FlightAware Approximate
Sat 05:08:00 AM -12.4489 -57.8096 137° Southeast  Level FlightAware Approximate
Sat 05:09:00 AM -12.5447 -57.7184 137° Southeast  Level FlightAware Approximate
Sat 05:10:00 AM -12.6404 -57.6272 137° Southeast  Level FlightAware Approximate
Sat 05:11:00 AM -12.7361 -57.5359 137° Southeast  Level FlightAware Approximate
Sat 05:12:00 AM -12.8318 -57.4445 137° Southeast  Level FlightAware Approximate
Sat 05:13:00 AM -12.9275 -57.3531 137° Southeast  Level FlightAware Approximate
Sat 05:14:00 AM -13.0231 -57.2615 137° Southeast  Level FlightAware Approximate
Sat 05:15:00 AM -13.1186 -57.1699 137° Southeast  Level FlightAware Approximate
Sat 05:16:00 AM -13.2142 -57.0783 137° Southeast  Level FlightAware Approximate
Sat 05:17:00 AM -13.3097 -56.9866 137° Southeast  Level FlightAware Approximate
Sat 05:18:00 AM -13.4052 -56.8947 137° Southeast  Level FlightAware Approximate
Sat 05:19:00 AM -13.5006 -56.8029 137° Southeast  Level FlightAware Approximate
Sat 05:20:00 AM -13.5961 -56.7109 137° Southeast  Level FlightAware Approximate
Sat 05:21:00 AM -13.6916 -56.6187 137° Southeast  Level FlightAware Approximate
Sat 05:22:00 AM -13.7871 -56.5265 137° Southeast  Level FlightAware Approximate
Sat 05:23:00 AM -13.8826 -56.4341 137° Southeast  Level FlightAware Approximate
Sat 05:24:00 AM -13.9781 -56.3417 137° Southeast  Level FlightAware Approximate
Sat 05:25:00 AM -14.0735 -56.2492 137° Southeast  Level FlightAware Approximate
Sat 05:26:00 AM -14.1688 -56.1567 137° Southeast  Level FlightAware Approximate
Sat 05:27:00 AM -14.2642 -56.0640 137° Southeast  Level FlightAware Approximate
Sat 05:28:00 AM -14.3595 -55.9713 137° Southeast  Level FlightAware Approximate
Sat 05:29:00 AM -14.4548 -55.8785 137° Southeast  Level FlightAware Approximate
Sat 05:30:00 AM -14.5500 -55.7856 137° Southeast  Level FlightAware Approximate
Sat 05:31:00 AM -14.6452 -55.6926 137° Southeast  Level FlightAware Approximate
Sat 05:32:00 AM -14.7404 -55.5996 137° Southeast  Level FlightAware Approximate
Sat 05:33:00 AM -14.8355 -55.5065 137° Southeast  Level FlightAware Approximate
Sat 05:34:00 AM -14.9306 -55.4132 137° Southeast  Level FlightAware Approximate
Sat 05:35:00 AM -15.0256 -55.3200 137° Southeast  Level FlightAware Approximate
Sat 05:36:00 AM -15.1206 -55.2266 137° Southeast  Level FlightAware Approximate
Sat 05:37:00 AM -15.2156 -55.1331 136° Southeast  Level FlightAware Approximate
Sat 05:38:00 AM -15.3105 -55.0396 136° Southeast  Level FlightAware Approximate
Sat 05:39:00 AM -15.4054 -54.9460 136° Southeast  Level FlightAware Approximate
Sat 05:40:00 AM -15.5003 -54.8522 136° Southeast  Level FlightAware Approximate
Sat 05:41:00 AM -15.5951 -54.7584 136° Southeast  Level FlightAware Approximate
Sat 05:42:00 AM -15.6898 -54.6646 136° Southeast  Level FlightAware Approximate
Sat 05:43:00 AM -15.7846 -54.5706 136° Southeast  Level FlightAware Approximate
Sat 05:44:00 AM -15.8793 -54.4765 136° Southeast  Level FlightAware Approximate
Sat 05:45:00 AM -15.9739 -54.3824 136° Southeast  Level FlightAware Approximate
Sat 05:46:00 AM -16.0685 -54.2882 136° Southeast  Level FlightAware Approximate
Sat 05:47:00 AM -16.1631 -54.1938 136° Southeast  Level FlightAware Approximate
Sat 05:48:00 AM -16.2576 -54.0994 136° Southeast  Level FlightAware Approximate
Sat 05:49:00 AM -16.3521 -54.0049 136° Southeast  Level FlightAware Approximate
Sat 05:50:00 AM -16.4466 -53.9103 136° Southeast  Level FlightAware Approximate
Sat 05:51:00 AM -16.5410 -53.8156 136° Southeast  Level FlightAware Approximate
Sat 05:52:00 AM -16.6353 -53.7208 136° Southeast  Level FlightAware Approximate
Sat 05:53:00 AM -16.7296 -53.6259 136° Southeast  Level FlightAware Approximate
Sat 05:54:00 AM -16.8239 -53.5310 136° Southeast  Level FlightAware Approximate
Sat 05:55:00 AM -16.9181 -53.4359 136° Southeast  Level FlightAware Approximate
Sat 05:56:00 AM -17.0123 -53.3407 136° Southeast  Level FlightAware Approximate
Sat 05:57:00 AM -17.1065 -53.2455 136° Southeast  Level FlightAware Approximate
Sat 05:58:00 AM -17.2006 -53.1501 136° Southeast  Level FlightAware Approximate
Sat 05:59:00 AM -17.2946 -53.0547 136° Southeast  Level FlightAware Approximate
Sat 06:00:00 AM -17.3886 -52.9591 136° Southeast  Level FlightAware Approximate
Sat 06:01:00 AM -17.4826 -52.8635 136° Southeast  Level FlightAware Approximate
Sat 06:02:00 AM -17.5765 -52.7677 136° Southeast  Level FlightAware Approximate
Sat 06:03:00 AM -17.6704 -52.6719 136° Southeast  Level FlightAware Approximate
Sat 06:04:00 AM -17.7642 -52.5760 136° Southeast  Level FlightAware Approximate
Sat 06:05:00 AM -17.8580 -52.4799 136° Southeast  Level FlightAware Approximate
Sat 06:06:00 AM -17.9517 -52.3838 136° Southeast  Level FlightAware Approximate
Sat 06:07:00 AM -18.0454 -52.2875 136° Southeast  Level FlightAware Approximate
Sat 06:08:00 AM -18.1390 -52.1912 136° Southeast  Level FlightAware Approximate
Sat 06:09:00 AM -18.2326 -52.0947 136° Southeast  Level FlightAware Approximate
Sat 06:10:00 AM -18.3262 -51.9981 136° Southeast  Level FlightAware Approximate
Sat 06:11:00 AM -18.4196 -51.9015 136° Southeast  Level FlightAware Approximate
Sat 06:12:00 AM -18.5131 -51.8047 136° Southeast  Level FlightAware Approximate
Sat 06:13:00 AM -18.6065 -51.7079 135° Southeast  Level FlightAware Approximate
Sat 06:14:00 AM -18.6998 -51.6109 135° Southeast  Level FlightAware Approximate
Sat 06:14:29 AM -19.0500 -50.6170 135° Southeast 490 564 35,000  Level FlightAware ADS-B
Sat 06:15:00 AM -18.7931 -51.5138 135° Southeast  Level FlightAware Approximate
Sat 06:15:03 AM -19.1020 -50.5590 133° Southeast 490 564 35,000  Level FlightAware ADS-B
Sat 06:15:39 AM -19.1600 -50.4960 134° Southeast 490 564 35,000  Level FlightAware ADS-B
Sat 06:16:15 AM -19.2170 -50.4340 134° Southeast 490 564 35,000  Level FlightAware ADS-B
Sat 06:16:47 AM -19.2680 -50.3780 134° Southeast 491 565 35,000  Level FlightAware ADS-B
Sat 06:17:23 AM -19.3240 -50.3160 134° Southeast 492 566 35,000  Level FlightAware ADS-B
Sat 06:17:59 AM -19.3810 -50.2540 134° Southeast 492 566 35,000  Level FlightAware ADS-B
Sat 06:18:35 AM -19.4380 -50.1910 134° Southeast 492 566 35,000  Level FlightAware ADS-B
Sat 06:19:07 AM -19.4890 -50.1350 134° Southeast 492 566 35,000  Level FlightAware ADS-B
Sat 06:19:50 AM -19.5550 -50.0620 134° Southeast 492 566 35,000  Level FlightAware ADS-B
Sat 06:20:24 AM -19.6090 -50.0030 134° Southeast 492 566 35,000  Level FlightAware ADS-B
Sat 06:21:00 AM -19.6670 -49.9390 134° Southeast 492 566 35,000  Level FlightAware ADS-B
Sat 06:21:36 AM -19.7240 -49.8770 134° Southeast 492 566 35,000  Level FlightAware ADS-B
Sat 06:22:08 AM -19.7750 -49.8210 134° Southeast 493 567 35,000  Level FlightAware ADS-B
Sat 06:22:46 AM -19.8350 -49.7560 134° Southeast 493 567 35,000  Level FlightAware ADS-B
Sat 06:23:22 AM -19.8940 -49.6910 134° Southeast 495 570 35,000  Level FlightAware ADS-B
Sat 06:23:54 AM -19.9440 -49.6360 134° Southeast 495 570 35,000  Level FlightAware ADS-B
Sat 06:24:30 AM -20.0010 -49.5740 134° Southeast 496 571 35,000  Level FlightAware ADS-B
Sat 06:25:04 AM -20.0560 -49.5130 134° Southeast 497 572 35,000  Level FlightAware ADS-B
Sat 06:25:40 AM -20.1130 -49.4500 134° Southeast 498 573 35,000  Level FlightAware ADS-B
Sat 06:26:12 AM -20.1650 -49.3930 134° Southeast 499 574 35,000  Level FlightAware ADS-B
Sat 06:26:52 AM -20.2300 -49.3220 134° Southeast 500 575 35,000  Level FlightAware ADS-B
Sat 06:27:24 AM -20.2810 -49.2660 134° Southeast 500 575 35,000  Level FlightAware ADS-B
Sat 06:28:00 AM -20.3390 -49.2010 134° Southeast 500 575 35,000  Level FlightAware ADS-B
Sat 06:28:36 AM -20.3960 -49.1390 134° Southeast 500 575 35,000  Level FlightAware ADS-B
Sat 06:29:12 AM -20.4550 -49.0730 134° Southeast 501 577 35,000  Level FlightAware ADS-B
Sat 06:29:42 AM -20.5030 -49.0200 134° Southeast 502 578 35,000  Level FlightAware ADS-B
Sat 06:30:21 AM -20.5650 -48.9510 134° Southeast 502 578 35,000  Level FlightAware ADS-B
Sat 06:30:56 AM -20.6220 -48.8880 134° Southeast 502 578 35,000  Level FlightAware ADS-B
Sat 06:31:28 AM -20.6730 -48.8310 134° Southeast 502 578 35,000  Level FlightAware ADS-B
Sat 06:32:04 AM -20.7320 -48.7650 134° Southeast 502 578 35,000  Level FlightAware ADS-B
Sat 06:32:40 AM -20.7900 -48.7000 134° Southeast 504 580 35,000  Level FlightAware ADS-B
Sat 06:33:17 AM -20.8480 -48.6350 134° Southeast 503 579 35,000  Level FlightAware ADS-B
Sat 06:33:48 AM -20.8990 -48.5780 134° Southeast 503 579 35,000  Level FlightAware ADS-B
Sat 06:34:24 AM -20.9560 -48.5140 134° Southeast 504 580 35,000  Level FlightAware ADS-B
Sat 06:35:00 AM -21.0140 -48.4480 133° Southeast 505 581 35,000  Level FlightAware ADS-B
Sat 06:35:36 AM -21.0700 -48.3850 134° Southeast 505 581 35,000  Level FlightAware ADS-B
Sat 06:36:09 AM -21.1220 -48.3270 134° Southeast 504 580 35,000  Level FlightAware ADS-B
Sat 06:36:45 AM -21.1810 -48.2600 133° Southeast 502 578 35,000  Level FlightAware ADS-B
Sat 06:37:21 AM -21.2380 -48.1950 133° Southeast 503 579 35,000  Level FlightAware ADS-B
Sat 06:37:57 AM -21.2950 -48.1310 134° Southeast 503 579 35,000  Level FlightAware ADS-B
Sat 06:38:29 AM -21.3500 -48.0680 133° Southeast 503 579 35,000  Level FlightAware ADS-B
Sat 06:39:05 AM -21.4040 -48.0070 134° Southeast 502 578 35,000  Level FlightAware ADS-B
Sat 06:39:41 AM -21.4620 -47.9410 133° Southeast 502 578 35,000  Level FlightAware ADS-B
Sat 06:40:13 AM -21.5150 -47.8810 134° Southeast 502 578 35,000  Level FlightAware ADS-B
Sat 06:40:50 AM -21.5710 -47.8180 134° Southeast 501 577 35,000  Level FlightAware ADS-B
Sat 06:41:25 AM -21.6280 -47.7530 133° Southeast 501 577 35,000  Level FlightAware ADS-B
Sat 06:42:00 AM -21.6850 -47.6880 133° Southeast 499 574 35,000  Level FlightAware ADS-B
Sat 06:42:33 AM -21.7410 -47.6310 137° Southeast 488 562 35,000 -761 Level FlightAware ADS-B
Sat 06:43:11 AM -21.8120 -47.5880 151° Southeast 481 554 34,100 -1,784 Descending FlightAware ADS-B
Sat 06:43:47 AM -21.8810 -47.5460 151° Southeast 475 547 32,800 -2,182 Descending FlightAware ADS-B
Sat 06:44:17 AM -21.9380 -47.5090 149° Southeast 471 542 31,700 -2,182 Descending FlightAware ADS-B
Sat 06:44:53 AM -22.0070 -47.4620 148° Southeast 465 535 30,400 -2,027 Descending FlightAware ADS-B
Sat 06:45:31 AM -22.0730 -47.4180 148° Southeast 458 527 29,200 -2,057 Descending FlightAware ADS-B
Sat 06:46:03 AM -22.1340 -47.3790 149° Southeast 453 521 28,000 -2,118 Descending FlightAware ADS-B
Sat 06:46:39 AM -22.1990 -47.3380 150° Southeast 448 516 26,800 -1,890 Descending FlightAware ADS-B
Sat 06:47:16 AM -22.2640 -47.2970 150° Southeast 442 509 25,700 -1,865 Descending FlightAware ADS-B
Sat 06:47:53 AM -22.3290 -47.2550 149° Southeast 436 502 24,500 -1,913 Descending FlightAware ADS-B
Sat 06:48:25 AM -22.3840 -47.2210 150° Southeast 433 498 23,500 -1,853 Descending FlightAware ADS-B
Sat 06:49:01 AM -22.4460 -47.1810 149° Southeast 427 491 22,400 -1,833 Descending FlightAware ADS-B
Sat 06:49:37 AM -22.5080 -47.1420 150° Southeast 422 486 21,300 -1,833 Descending FlightAware ADS-B
Sat 06:50:13 AM -22.5690 -47.1040 150° Southeast 415 478 20,200 -1,818 Descending FlightAware ADS-B
Sat 06:50:43 AM -22.6210 -47.0790 156° South 409 471 19,300 -1,781 Descending FlightAware ADS-B
Sat 06:51:17 AM -22.6810 -47.0540 159° South 402 463 18,300 -1,784 Descending FlightAware ADS-B
Sat 06:51:57 AM -22.7500 -47.0250 159° South 396 456 17,100 -1,737 Descending FlightAware ADS-B
Sat 06:52:33 AM -22.8120 -46.9990 159° South 389 448 16,100 -1,676 Descending FlightAware ADS-B
Sat 06:53:05 AM -22.8650 -46.9770 159° South 383 441 15,200 -1,739 Descending FlightAware ADS-B
Sat 06:53:42 AM -22.9250 -46.9510 158° South 379 436 14,100 -1,750 Descending FlightAware ADS-B
Sat 06:54:17 AM -22.9830 -46.9270 159° South 375 432 13,100 -1,606 Descending FlightAware ADS-B
Sat 06:54:53 AM -23.0390 -46.9040 159° South 344 396 12,200 -1,500 Descending FlightAware ADS-B
Sat 06:55:25 AM -23.0850 -46.8840 158° South 328 377 11,400 -1,500 Descending FlightAware ADS-B
Sat 06:56:01 AM -23.1360 -46.8630 159° South 326 375 10,500 -1,313 Descending FlightAware ADS-B
Sat 06:56:29 AM -23.1750 -46.8460 158° South 315 362 10,000 -1,125 Descending FlightAware ADS-B
Sat 06:56:49 AM -23.2020 -46.8350 159° South 306 352 9,600 -1,227 Descending FlightAware ADS-B
Sat 06:57:13 AM -23.2330 -46.8220 159° South 300 345 9,100 -1,227 Descending FlightAware ADS-B
Sat 06:57:33 AM -23.2590 -46.8110 159° South 294 338 8,700 -1,200 Descending FlightAware ADS-B
Sat 06:57:53 AM -23.2840 -46.8000 158° South 285 328 8,300 -1,050 Descending FlightAware ADS-B
Sat 06:58:13 AM -23.3080 -46.7900 159° South 268 308 8,000 -1,000 Descending FlightAware ADS-B
Sat 06:58:35 AM -23.3320 -46.7800 159° South 255 293 7,600 -1,091 Descending FlightAware ADS-B
Sat 06:58:57 AM -23.3570 -46.7690 158° South 252 290 7,200 -947 Descending FlightAware ADS-B
Sat 06:59:13 AM -23.3730 -46.7600 153° Southeast 247 284 7,000 -1,029 Descending FlightAware ADS-B
Sat 06:59:32 AM -23.3900 -46.7460 143° Southeast 244 281 6,600 -1,421 Descending FlightAware ADS-B
Sat 06:59:51 AM -23.4070 -46.7310 141° Southeast 246 283 6,100 -1,317 Descending FlightAware ADS-B
Sat 07:00:13 AM -23.4260 -46.7130 139° Southeast 244 281 5,700 -1,174 Descending FlightAware ADS-B
Sat 07:00:37 AM -23.4450 -46.6930 136° Southeast 236 272 5,200 -1,167 Descending FlightAware ADS-B
Sat 07:00:49 AM -23.4520 -46.6820 125° Southeast 225 259 5,000 -500 Descending FlightAware ADS-B
Sat 07:01:01 AM -23.4570 -46.6710 116° Southeast 213 245 5,000 -333 Level FlightAware ADS-B
Sat 07:01:25 AM -23.4670 -46.6480 115° Southeast 205 236 4,800 -409 Descending FlightAware ADS-B
Sat 07:01:45 AM -23.4740 -46.6290 112° Southeast 196 226 4,700 -480 Descending FlightAware ADS-B
Sat 07:01:50 AM -23.4740 -46.6240 90° East 190 219 4,600 -429 Descending FlightAware ADS-B
Sat 07:02:13 AM -23.4700 -46.6030 78° East 181 208 4,500 -558 Descending FlightAware ADS-B
Sat 07:02:33 AM -23.4650 -46.5860 72° East 175 201 4,200 -955 Descending FlightAware ADS-B
Sat 07:02:57 AM -23.4600 -46.5660 75° East 161 185 3,800 -955 Descending FlightAware ADS-B
Sat 07:03:17 AM -23.4560 -46.5510 74° East 155 178 3,500 -750 Descending FlightAware ADS-B
Sat 07:03:37 AM -23.4520 -46.5350 75° East 156 180 3,300 -750 Descending FlightAware ADS-B
Sat 07:03:57 AM -23.4480 -46.5210 73° East 155 178 3,000 -818 Descending FlightAware ADS-B
Sat 07:04:21 AM -23.4430 -46.5030 73° East 150 173 2,700 -686 Descending FlightAware ADS-B
Sat 07:04:32 AM -23.4410 -46.4960 73° East 151 174 2,600 -200 Descending FlightAware ADS-B
Sat 07:04:51 AM -23.4410 -46.4930 90° East 152 175 2,600  Level FlightAware ADS-B
Sat 07:05:18 AM -23.4360 -46.4770 71° East 152 175 2,600  Level FlightAware ADS-B

Login

Don't have an account? Register now (free) for customized features, flight alerts, and more!